sensor_id;sensor_type;location;lat;lon;timestamp;pressure;altitude;pressure_sealevel;temperature;humidity
8641;BME280;4358;42.100;25.222;2023-01-13T00:02:16;100492.63;;;7.56;100.00
8641;BME280;4358;42.100;25.222;2023-01-13T00:04:42;100496.28;;;7.53;100.00
8641;BME280;4358;42.100;25.222;2023-01-13T00:07:09;100499.03;;;7.50;100.00
8641;BME280;4358;42.100;25.222;2023-01-13T00:09:36;100497.19;;;7.52;100.00
8641;BME280;4358;42.100;25.222;2023-01-13T00:12:03;100506.09;;;7.50;100.00
8641;BME280;4358;42.100;25.222;2023-01-13T00:14:33;100507.88;;;7.49;100.00
8641;BME280;4358;42.100;25.222;2023-01-13T00:17:00;100486.88;;;7.46;100.00
8641;BME280;4358;42.100;25.222;2023-01-13T00:19:27;100502.03;;;7.61;100.00
8641;BME280;4358;42.100;25.222;2023-01-13T00:21:54;100494.91;;;7.63;100.00
8641;BME280;4358;42.100;25.222;2023-01-13T00:24:23;100500.91;;;7.67;100.00
8641;BME280;4358;42.100;25.222;2023-01-13T00:26:50;100498.47;;;7.62;100.00
8641;BME280;4358;42.100;25.222;2023-01-13T00:29:17;100500.47;;;7.57;100.00
8641;BME280;4358;42.100;25.222;2023-01-13T00:31:47;100497.19;;;7.52;100.00
8641;BME280;4358;42.100;25.222;2023-01-13T00:34:15;100497.47;;;7.46;100.00
8641;BME280;4358;42.100;25.222;2023-01-13T00:36:42;100495.72;;;7.45;100.00
8641;BME280;4358;42.100;25.222;2023-01-13T00:39:09;100490.44;;;7.45;100.00
8641;BME280;4358;42.100;25.222;2023-01-13T00:41:36;100490.19;;;7.51;100.00
8641;BME280;4358;42.100;25.222;2023-01-13T00:44:20;100490.88;;;7.55;100.00
8641;BME280;4358;42.100;25.222;2023-01-13T00:46:48;100481.88;;;7.59;100.00
8641;BME280;4358;42.100;25.222;2023-01-13T00:49:15;100477.63;;;7.56;100.00
8641;BME280;4358;42.100;25.222;2023-01-13T00:51:42;100479.19;;;7.60;100.00
8641;BME280;4358;42.100;25.222;2023-01-13T00:54:09;100478.53;;;7.55;100.00
8641;BME280;4358;42.100;25.222;2023-01-13T00:56:35;100477.19;;;7.65;100.00
8641;BME280;4358;42.100;25.222;2023-01-13T00:59:02;100480.47;;;7.71;100.00
8641;BME280;4358;42.100;25.222;2023-01-13T01:01:29;100474.44;;;7.69;100.00
8641;BME280;4358;42.100;25.222;2023-01-13T01:03:57;100481.56;;;7.66;100.00
8641;BME280;4358;42.100;25.222;2023-01-13T01:06:25;100471.91;;;7.65;100.00
8641;BME280;4358;42.100;25.222;2023-01-13T01:08:53;100468.28;;;7.68;100.00
8641;BME280;4358;42.100;25.222;2023-01-13T01:11:22;100470.06;;;7.68;100.00
8641;BME280;4358;42.100;25.222;2023-01-13T01:13:50;100469.53;;;7.59;100.00
8641;BME280;4358;42.100;25.222;2023-01-13T01:16:19;100464.41;;;7.38;100.00
8641;BME280;4358;42.100;25.222;2023-01-13T01:18:47;100461.66;;;7.20;100.00
8641;BME280;4358;42.100;25.222;2023-01-13T01:21:17;100461.84;;;7.16;100.00
8641;BME280;4358;42.100;25.222;2023-01-13T01:23:44;100464.34;;;7.19;100.00
8641;BME280;4358;42.100;25.222;2023-01-13T01:26:14;100458.31;;;7.17;100.00
8641;BME280;4358;42.100;25.222;2023-01-13T01:28:41;100458.84;;;7.23;100.00
8641;BME280;4358;42.100;25.222;2023-01-13T01:31:10;100467.38;;;7.30;100.00
8641;BME280;4358;42.100;25.222;2023-01-13T01:33:38;100462.25;;;7.27;100.00
8641;BME280;4358;42.100;25.222;2023-01-13T01:36:07;100466.13;;;7.18;100.00
8641;BME280;4358;42.100;25.222;2023-01-13T01:38:36;100456.84;;;7.10;100.00
8641;BME280;4358;42.100;25.222;2023-01-13T01:41:03;100468.25;;;7.10;100.00
8641;BME280;4358;42.100;25.222;2023-01-13T01:43:46;100465.41;;;7.15;100.00
8641;BME280;4358;42.100;25.222;2023-01-13T01:46:30;100464.34;;;7.19;100.00
8641;BME280;4358;42.100;25.222;2023-01-13T01:49:05;100461.22;;;7.11;100.00
8641;BME280;4358;42.100;25.222;2023-01-13T01:51:36;100459.81;;;7.02;100.00
8641;BME280;4358;42.100;25.222;2023-01-13T01:54:07;100463.97;;;6.88;100.00
8641;BME280;4358;42.100;25.222;2023-01-13T01:56:36;100466.50;;;6.91;100.00
8641;BME280;4358;42.100;25.222;2023-01-13T01:59:04;100464.56;;;6.94;100.00
8641;BME280;4358;42.100;25.222;2023-01-13T02:01:32;100464.63;;;6.93;100.00
8641;BME280;4358;42.100;25.222;2023-01-13T02:04:02;100468.06;;;6.95;100.00
8641;BME280;4358;42.100;25.222;2023-01-13T02:06:30;100463.38;;;7.01;100.00
8641;BME280;4358;42.100;25.222;2023-01-13T02:08:58;100461.22;;;7.11;100.00
8641;BME280;4358;42.100;25.222;2023-01-13T02:11:29;100461.06;;;7.14;100.00
8641;BME280;4358;42.100;25.222;2023-01-13T02:14:15;100460.41;;;7.09;100.00
8641;BME280;4358;42.100;25.222;2023-01-13T02:16:49;100456.56;;;7.16;100.00
8641;BME280;4358;42.100;25.222;2023-01-13T02:19:36;100461.59;;;7.22;100.00
8641;BME280;4358;42.100;25.222;2023-01-13T02:22:22;100467.91;;;7.18;100.00
8641;BME280;4358;42.100;25.222;2023-01-13T02:27:58;100464.63;;;7.13;100.00
8641;BME280;4358;42.100;25.222;2023-01-13T02:30:38;100470.53;;;7.18;100.00
8641;BME280;4358;42.100;25.222;2023-01-13T02:33:38;100473.06;;;7.21;100.00
8641;BME280;4358;42.100;25.222;2023-01-13T02:36:14;100474.00;;;7.20;100.00
8641;BME280;4358;42.100;25.222;2023-01-13T02:38:49;100470.44;;;7.21;100.00
8641;BME280;4358;42.100;25.222;2023-01-13T02:41:23;100468.00;;;7.16;100.00
8641;BME280;4358;42.100;25.222;2023-01-13T02:44:12;100466.34;;;7.14;100.00
8641;BME280;4358;42.100;25.222;2023-01-13T02:46:50;100470.09;;;7.08;100.00
8641;BME280;4358;42.100;25.222;2023-01-13T02:49:24;100467.66;;;7.04;100.00
8641;BME280;4358;42.100;25.222;2023-01-13T02:51:59;100462.53;;;7.01;100.00
8641;BME280;4358;42.100;25.222;2023-01-13T02:54:31;100475.16;;;7.13;100.00
8641;BME280;4358;42.100;25.222;2023-01-13T02:57:00;100474.13;;;7.17;100.00
8641;BME280;4358;42.100;25.222;2023-01-13T02:59:29;100471.22;;;7.03;100.00
8641;BME280;4358;42.100;25.222;2023-01-13T03:01:58;100476.59;;;7.01;100.00
8641;BME280;4358;42.100;25.222;2023-01-13T03:04:58;100476.75;;;6.97;100.00
8641;BME280;4358;42.100;25.222;2023-01-13T03:07:54;100478.22;;;7.04;100.00
8641;BME280;4358;42.100;25.222;2023-01-13T03:10:46;100473.94;;;7.01;100.00
8641;BME280;4358;42.100;25.222;2023-01-13T03:13:34;100479.00;;;6.86;100.00
8641;BME280;4358;42.100;25.222;2023-01-13T03:16:13;100477.00;;;6.70;100.00
8641;BME280;4358;42.100;25.222;2023-01-13T03:18:49;100471.59;;;6.53;100.00
8641;BME280;4358;42.100;25.222;2023-01-13T03:21:20;100474.00;;;6.59;100.00
8641;BME280;4358;42.100;25.222;2023-01-13T03:23:56;100471.94;;;6.66;100.00
8641;BME280;4358;42.100;25.222;2023-01-13T03:26:30;100467.03;;;6.57;100.00
8641;BME280;4358;42.100;25.222;2023-01-13T03:29:05;100474.50;;;6.67;100.00
8641;BME280;4358;42.100;25.222;2023-01-13T03:31:39;100476.16;;;6.70;100.00
8641;BME280;4358;42.100;25.222;2023-01-13T03:34:13;100477.16;;;6.67;100.00
8641;BME280;4358;42.100;25.222;2023-01-13T03:36:42;100475.19;;;6.72;100.00
8641;BME280;4358;42.100;25.222;2023-01-13T03:39:11;100481.13;;;6.77;100.00
8641;BME280;4358;42.100;25.222;2023-01-13T03:41:44;100482.94;;;6.75;100.00
8641;BME280;4358;42.100;25.222;2023-01-13T03:44:20;100485.66;;;6.74;100.00
8641;BME280;4358;42.100;25.222;2023-01-13T03:46:53;100483.56;;;6.82;100.00
8641;BME280;4358;42.100;25.222;2023-01-13T03:49:28;100491.28;;;6.87;100.00
8641;BME280;4358;42.100;25.222;2023-01-13T03:52:00;100484.97;;;6.91;100.00
8641;BME280;4358;42.100;25.222;2023-01-13T03:54:32;100494.72;;;6.89;100.00
8641;BME280;4358;42.100;25.222;2023-01-13T03:57:03;100496.53;;;6.87;100.00
8641;BME280;4358;42.100;25.222;2023-01-13T03:59:35;100492.75;;;6.94;100.00
8641;BME280;4358;42.100;25.222;2023-01-13T04:02:08;100494.31;;;6.98;100.00
8641;BME280;4358;42.100;25.222;2023-01-13T04:04:40;100499.41;;;7.02;100.00
8641;BME280;4358;42.100;25.222;2023-01-13T04:07:14;100501.91;;;7.05;100.00
8641;BME280;4358;42.100;25.222;2023-01-13T04:09:48;100500.19;;;7.04;100.00
8641;BME280;4358;42.100;25.222;2023-01-13T04:12:21;100501.06;;;7.05;100.00
8641;BME280;4358;42.100;25.222;2023-01-13T04:14:51;100509.88;;;7.04;100.00
8641;BME280;4358;42.100;25.222;2023-01-13T04:17:18;100511.34;;;7.11;100.00
8641;BME280;4358;42.100;25.222;2023-01-13T04:19:46;100502.28;;;6.96;100.00
8641;BME280;4358;42.100;25.222;2023-01-13T04:22:13;100511.72;;;7.02;100.00
8641;BME280;4358;42.100;25.222;2023-01-13T04:24:40;100521.44;;;7.01;100.00
8641;BME280;4358;42.100;25.222;2023-01-13T04:27:07;100511.81;;;7.00;100.00
8641;BME280;4358;42.100;25.222;2023-01-13T04:29:33;100518.00;;;6.99;100.00
8641;BME280;4358;42.100;25.222;2023-01-13T04:32:00;100513.84;;;6.94;100.00
8641;BME280;4358;42.100;25.222;2023-01-13T04:34:27;100510.03;;;7.01;100.00
8641;BME280;4358;42.100;25.222;2023-01-13T04:36:56;100517.75;;;7.05;100.00
8641;BME280;4358;42.100;25.222;2023-01-13T04:39:22;100518.31;;;7.12;100.00
8641;BME280;4358;42.100;25.222;2023-01-13T04:41:49;100505.28;;;7.09;100.00
8641;BME280;4358;42.100;25.222;2023-01-13T04:44:27;100519.13;;;7.14;100.00
8641;BME280;4358;42.100;25.222;2023-01-13T04:46:55;100518.94;;;7.18;100.00
8641;BME280;4358;42.100;25.222;2023-01-13T04:49:23;100525.94;;;7.19;100.00
8641;BME280;4358;42.100;25.222;2023-01-13T04:51:50;100524.94;;;7.22;100.00
8641;BME280;4358;42.100;25.222;2023-01-13T04:54:18;100531.06;;;7.22;100.00
8641;BME280;4358;42.100;25.222;2023-01-13T04:56:45;100527.59;;;7.22;100.00
8641;BME280;4358;42.100;25.222;2023-01-13T04:59:12;100522.44;;;7.19;100.00
8641;BME280;4358;42.100;25.222;2023-01-13T05:01:40;100530.59;;;7.13;100.00
8641;BME280;4358;42.100;25.222;2023-01-13T05:04:07;100535.63;;;7.19;100.00
8641;BME280;4358;42.100;25.222;2023-01-13T05:06:34;100534.72;;;7.20;100.00
8641;BME280;4358;42.100;25.222;2023-01-13T05:09:00;100541.81;;;7.18;100.00
8641;BME280;4358;42.100;25.222;2023-01-13T05:11:29;100541.06;;;7.16;100.00
8641;BME280;4358;42.100;25.222;2023-01-13T05:14:13;100540.03;;;7.18;100.00
8641;BME280;4358;42.100;25.222;2023-01-13T05:16:57;100544.34;;;7.21;100.00
8641;BME280;4358;42.100;25.222;2023-01-13T05:19:28;100549.63;;;7.21;100.00
8641;BME280;4358;42.100;25.222;2023-01-13T05:21:55;100554.16;;;7.17;100.00
8641;BME280;4358;42.100;25.222;2023-01-13T05:24:40;100543.53;;;7.19;100.00
8641;BME280;4358;42.100;25.222;2023-01-13T05:27:26;100552.13;;;7.24;100.00
8641;BME280;4358;42.100;25.222;2023-01-13T05:29:53;100553.84;;;7.25;100.00
8641;BME280;4358;42.100;25.222;2023-01-13T05:32:23;100557.34;;;7.26;100.00
8641;BME280;4358;42.100;25.222;2023-01-13T05:34:52;100553.66;;;7.30;100.00
8641;BME280;4358;42.100;25.222;2023-01-13T05:37:19;100563.09;;;7.35;100.00
8641;BME280;4358;42.100;25.222;2023-01-13T05:39:46;100565.78;;;7.34;100.00
8641;BME280;4358;42.100;25.222;2023-01-13T05:42:32;100571.22;;;7.31;100.00
8641;BME280;4358;42.100;25.222;2023-01-13T05:45:18;100569.47;;;6.89;100.00
8641;BME280;4358;42.100;25.222;2023-01-13T05:47:45;100563.56;;;6.82;100.00
8641;BME280;4358;42.100;25.222;2023-01-13T05:50:12;100568.47;;;6.92;100.00
8641;BME280;4358;42.100;25.222;2023-01-13T05:52:39;100565.16;;;6.87;100.00
8641;BME280;4358;42.100;25.222;2023-01-13T05:55:08;100562.84;;;6.79;100.00
8641;BME280;4358;42.100;25.222;2023-01-13T05:57:37;100563.09;;;6.73;100.00
8641;BME280;4358;42.100;25.222;2023-01-13T06:00:04;100566.63;;;6.72;100.00
8641;BME280;4358;42.100;25.222;2023-01-13T06:02:31;100560.50;;;6.71;100.00
8641;BME280;4358;42.100;25.222;2023-01-13T06:04:58;100561.59;;;6.66;100.00
8641;BME280;4358;42.100;25.222;2023-01-13T06:07:25;100570.81;;;6.77;100.00
8641;BME280;4358;42.100;25.222;2023-01-13T06:09:52;100571.34;;;6.86;100.00
8641;BME280;4358;42.100;25.222;2023-01-13T06:12:18;100571.53;;;6.81;100.00
8641;BME280;4358;42.100;25.222;2023-01-13T06:14:48;100573.88;;;6.89;100.00
8641;BME280;4358;42.100;25.222;2023-01-13T06:17:15;100577.00;;;6.76;100.00
8641;BME280;4358;42.100;25.222;2023-01-13T06:19:42;100576.34;;;6.71;100.00
8641;BME280;4358;42.100;25.222;2023-01-13T06:22:12;100580.88;;;6.68;100.00
8641;BME280;4358;42.100;25.222;2023-01-13T06:24:40;100576.47;;;6.68;100.00
8641;BME280;4358;42.100;25.222;2023-01-13T06:27:08;100579.16;;;6.67;100.00
8641;BME280;4358;42.100;25.222;2023-01-13T06:29:35;100580.88;;;6.68;100.00
8641;BME280;4358;42.100;25.222;2023-01-13T06:32:06;100577.16;;;6.73;100.00
8641;BME280;4358;42.100;25.222;2023-01-13T06:34:36;100583.72;;;6.85;100.00
8641;BME280;4358;42.100;25.222;2023-01-13T06:37:04;100578.16;;;6.91;100.00
8641;BME280;4358;42.100;25.222;2023-01-13T06:39:33;100573.63;;;6.95;100.00
8641;BME280;4358;42.100;25.222;2023-01-13T06:42:01;100581.81;;;7.09;100.00
8641;BME280;4358;42.100;25.222;2023-01-13T06:44:47;100581.69;;;7.12;100.00
8641;BME280;4358;42.100;25.222;2023-01-13T06:47:16;100575.16;;;7.20;100.00
8641;BME280;4358;42.100;25.222;2023-01-13T06:49:42;100583.75;;;7.26;100.00
8641;BME280;4358;42.100;25.222;2023-01-13T06:52:09;100588.88;;;7.29;100.00
8641;BME280;4358;42.100;25.222;2023-01-13T06:54:36;100579.59;;;7.20;100.00
8641;BME280;4358;42.100;25.222;2023-01-13T06:57:03;100592.34;;;7.31;100.00
8641;BME280;4358;42.100;25.222;2023-01-13T06:59:30;100598.00;;;7.21;100.00
8641;BME280;4358;42.100;25.222;2023-01-13T07:01:58;100596.41;;;7.17;100.00
8641;BME280;4358;42.100;25.222;2023-01-13T07:04:27;100590.16;;;7.20;100.00
8641;BME280;4358;42.100;25.222;2023-01-13T07:06:54;100599.59;;;7.26;100.00
8641;BME280;4358;42.100;25.222;2023-01-13T07:09:20;100602.28;;;7.24;100.00
8641;BME280;4358;42.100;25.222;2023-01-13T07:11:47;100602.91;;;7.31;100.00
8641;BME280;4358;42.100;25.222;2023-01-13T07:14:16;100607.25;;;7.32;100.00
8641;BME280;4358;42.100;25.222;2023-01-13T07:17:01;100606.06;;;7.39;100.00
8641;BME280;4358;42.100;25.222;2023-01-13T07:19:29;100615.66;;;7.41;100.00
8641;BME280;4358;42.100;25.222;2023-01-13T07:21:56;100605.34;;;7.35;100.00
8641;BME280;4358;42.100;25.222;2023-01-13T07:24:23;100615.66;;;7.41;100.00
8641;BME280;4358;42.100;25.222;2023-01-13T07:26:50;100613.66;;;7.46;100.00
8641;BME280;4358;42.100;25.222;2023-01-13T07:29:17;100616.81;;;7.54;100.00
8641;BME280;4358;42.100;25.222;2023-01-13T07:31:44;100615.84;;;7.57;100.00
8641;BME280;4358;42.100;25.222;2023-01-13T07:34:11;100614.97;;;7.56;100.00
8641;BME280;4358;42.100;25.222;2023-01-13T07:36:39;100628.41;;;7.52;100.00
8641;BME280;4358;42.100;25.222;2023-01-13T07:39:06;100608.13;;;7.52;100.00
8641;BME280;4358;42.100;25.222;2023-01-13T07:41:33;100621.72;;;7.63;100.00
8641;BME280;4358;42.100;25.222;2023-01-13T07:44:17;100625.88;;;7.69;100.00
8641;BME280;4358;42.100;25.222;2023-01-13T07:46:44;100626.72;;;7.70;100.00
8641;BME280;4358;42.100;25.222;2023-01-13T07:49:11;100626.34;;;7.79;100.00
8641;BME280;4358;42.100;25.222;2023-01-13T07:51:39;100625.34;;;7.81;100.00
8641;BME280;4358;42.100;25.222;2023-01-13T07:54:06;100628.84;;;7.82;100.00
8641;BME280;4358;42.100;25.222;2023-01-13T07:56:33;100626.19;;;7.82;100.00
8641;BME280;4358;42.100;25.222;2023-01-13T07:59:00;100609.94;;;7.71;100.00
8641;BME280;4358;42.100;25.222;2023-01-13T08:01:28;100634.06;;;7.83;100.00
8641;BME280;4358;42.100;25.222;2023-01-13T08:03:56;100634.06;;;7.83;100.00
8641;BME280;4358;42.100;25.222;2023-01-13T08:06:23;100630.56;;;7.83;100.00
8641;BME280;4358;42.100;25.222;2023-01-13T08:08:52;100639.28;;;7.85;100.00
8641;BME280;4358;42.100;25.222;2023-01-13T08:11:19;100635.47;;;7.90;100.00
8641;BME280;4358;42.100;25.222;2023-01-13T08:13:46;100641.50;;;7.94;100.00
8641;BME280;4358;42.100;25.222;2023-01-13T08:16:13;100632.50;;;7.98;100.00
8641;BME280;4358;42.100;25.222;2023-01-13T08:18:41;100650.47;;;8.10;100.00
8641;BME280;4358;42.100;25.222;2023-01-13T08:21:09;100643.47;;;8.09;100.00
8641;BME280;4358;42.100;25.222;2023-01-13T08:23:36;100650.22;;;8.16;100.00
8641;BME280;4358;42.100;25.222;2023-01-13T08:26:06;100655.78;;;8.29;100.00
8641;BME280;4358;42.100;25.222;2023-01-13T08:28:33;100636.16;;;8.34;100.00
8641;BME280;4358;42.100;25.222;2023-01-13T08:31:01;100654.78;;;8.52;100.00
8641;BME280;4358;42.100;25.222;2023-01-13T08:33:28;100660.75;;;8.55;100.00
8641;BME280;4358;42.100;25.222;2023-01-13T08:35:56;100664.22;;;8.57;100.00
8641;BME280;4358;42.100;25.222;2023-01-13T08:38:23;100654.09;;;8.65;100.00
8641;BME280;4358;42.100;25.222;2023-01-13T08:40:50;100656.41;;;8.73;100.00
8641;BME280;4358;42.100;25.222;2023-01-13T08:43:19;100667.34;;;8.84;100.00
8641;BME280;4358;42.100;25.222;2023-01-13T08:45:54;100660.81;;;8.91;100.00
8641;BME280;4358;42.100;25.222;2023-01-13T08:48:21;100661.66;;;8.91;100.00
8641;BME280;4358;42.100;25.222;2023-01-13T08:50:48;100665.00;;;8.95;100.00
8641;BME280;4358;42.100;25.222;2023-01-13T08:53:15;100665.34;;;9.06;100.00
8641;BME280;4358;42.100;25.222;2023-01-13T08:55:42;100653.66;;;8.93;100.00
8641;BME280;4358;42.100;25.222;2023-01-13T08:58:09;100665.88;;;9.14;100.00
8641;BME280;4358;42.100;25.222;2023-01-13T09:00:37;100665.72;;;9.34;100.00
8641;BME280;4358;42.100;25.222;2023-01-13T09:03:04;100657.00;;;9.32;100.00
8641;BME280;4358;42.100;25.222;2023-01-13T09:05:31;100660.59;;;9.49;100.00
8641;BME280;4358;42.100;25.222;2023-01-13T09:07:58;100665.41;;;9.58;100.00
8641;BME280;4358;42.100;25.222;2023-01-13T09:10:24;100658.63;;;9.69;100.00
8641;BME280;4358;42.100;25.222;2023-01-13T09:12:51;100659.97;;;9.78;100.00
8641;BME280;4358;42.100;25.222;2023-01-13T09:15:37;100648.28;;;9.82;100.00
8641;BME280;4358;42.100;25.222;2023-01-13T09:18:04;100643.50;;;9.89;100.00
8641;BME280;4358;42.100;25.222;2023-01-13T09:20:30;100647.63;;;9.94;100.00
8641;BME280;4358;42.100;25.222;2023-01-13T09:22:57;100645.59;;;9.99;100.00
8641;BME280;4358;42.100;25.222;2023-01-13T09:25:24;100646.59;;;9.97;100.00
8641;BME280;4358;42.100;25.222;2023-01-13T09:27:51;100627.97;;;9.98;100.00
8641;BME280;4358;42.100;25.222;2023-01-13T09:30:18;100643.38;;;10.07;100.00
8641;BME280;4358;42.100;25.222;2023-01-13T09:32:46;100646.97;;;10.06;100.00
8641;BME280;4358;42.100;25.222;2023-01-13T09:35:13;100648.25;;;9.99;100.00
8641;BME280;4358;42.100;25.222;2023-01-13T09:37:40;100650.19;;;9.96;100.00
8641;BME280;4358;42.100;25.222;2023-01-13T09:40:11;100638.34;;;9.86;100.00
8641;BME280;4358;42.100;25.222;2023-01-13T09:42:42;100639.41;;;9.66;100.00
8641;BME280;4358;42.100;25.222;2023-01-13T09:45:32;100644.16;;;9.59;100.00
8641;BME280;4358;42.100;25.222;2023-01-13T09:48:08;100644.38;;;9.55;100.00
8641;BME280;4358;42.100;25.222;2023-01-13T09:50:50;100642.22;;;9.46;100.00
8641;BME280;4358;42.100;25.222;2023-01-13T09:53:24;100632.22;;;9.51;100.00
8641;BME280;4358;42.100;25.222;2023-01-13T09:55:52;100637.06;;;9.60;100.00
8641;BME280;4358;42.100;25.222;2023-01-13T09:58:19;100634.56;;;9.57;100.00
8641;BME280;4358;42.100;25.222;2023-01-13T10:00:52;100628.16;;;9.61;100.00
8641;BME280;4358;42.100;25.222;2023-01-13T10:03:26;100627.31;;;9.60;100.00
8641;BME280;4358;42.100;25.222;2023-01-13T10:05:58;100627.88;;;9.67;100.00
8641;BME280;4358;42.100;25.222;2023-01-13T10:08:31;100636.44;;;9.72;100.00
8641;BME280;4358;42.100;25.222;2023-01-13T10:11:00;100634.16;;;9.82;100.00
8641;BME280;4358;42.100;25.222;2023-01-13T10:13:54;100630.47;;;9.84;100.00
8641;BME280;4358;42.100;25.222;2023-01-13T10:16:28;100626.06;;;10.00;100.00
8641;BME280;4358;42.100;25.222;2023-01-13T10:19:02;100622.34;;;10.04;100.00
8641;BME280;4358;42.100;25.222;2023-01-13T10:21:52;100620.69;;;10.02;100.00
8641;BME280;4358;42.100;25.222;2023-01-13T10:24:28;100618.91;;;10.02;100.00
8641;BME280;4358;42.100;25.222;2023-01-13T10:27:02;100620.31;;;10.09;100.00
8641;BME280;4358;42.100;25.222;2023-01-13T10:29:30;100605.72;;;10.01;100.00
8641;BME280;4358;42.100;25.222;2023-01-13T10:31:59;100613.44;;;10.05;100.00
8641;BME280;4358;42.100;25.222;2023-01-13T10:34:27;100603.59;;;10.07;100.00
8641;BME280;4358;42.100;25.222;2023-01-13T10:36:57;100597.56;;;10.21;100.00
8641;BME280;4358;42.100;25.222;2023-01-13T10:39:38;100602.28;;;10.32;100.00
8641;BME280;4358;42.100;25.222;2023-01-13T10:42:11;100603.44;;;10.43;100.00
8641;BME280;4358;42.100;25.222;2023-01-13T10:44:49;100589.28;;;10.43;100.00
8641;BME280;4358;42.100;25.222;2023-01-13T10:47:21;100594.00;;;10.53;100.00
8641;BME280;4358;42.100;25.222;2023-01-13T10:50:18;100589.56;;;10.54;100.00
8641;BME280;4358;42.100;25.222;2023-01-13T10:52:58;100591.09;;;10.58;100.00
8641;BME280;4358;42.100;25.222;2023-01-13T10:55:27;100584.09;;;10.57;100.00
8641;BME280;4358;42.100;25.222;2023-01-13T10:57:56;100580.31;;;10.61;100.00
8641;BME280;4358;42.100;25.222;2023-01-13T11:00:27;100576.53;;;10.65;100.00
8641;BME280;4358;42.100;25.222;2023-01-13T11:03:12;100562.94;;;10.71;100.00
8641;BME280;4358;42.100;25.222;2023-01-13T11:05:49;100567.19;;;10.74;100.00
8641;BME280;4358;42.100;25.222;2023-01-13T11:08:17;100568.50;;;10.82;100.00
8641;BME280;4358;42.100;25.222;2023-01-13T11:10:47;100566.75;;;10.81;100.00
8641;BME280;4358;42.100;25.222;2023-01-13T11:13:16;100565.03;;;10.80;100.00
8641;BME280;4358;42.100;25.222;2023-01-13T11:15:51;100557.00;;;10.82;100.00
8641;BME280;4358;42.100;25.222;2023-01-13T11:18:23;100560.53;;;10.82;100.00
8641;BME280;4358;42.100;25.222;2023-01-13T11:20:54;100562.47;;;10.79;100.00
8641;BME280;4358;42.100;25.222;2023-01-13T11:23:29;100557.63;;;10.71;100.00
8641;BME280;4358;42.100;25.222;2023-01-13T11:26:03;100563.47;;;10.62;100.00
8641;BME280;4358;42.100;25.222;2023-01-13T11:28:37;100557.91;;;10.51;100.00
8641;BME280;4358;42.100;25.222;2023-01-13T11:31:12;100554.31;;;10.52;100.00
8641;BME280;4358;42.100;25.222;2023-01-13T11:33:44;100557.13;;;10.49;100.00
8641;BME280;4358;42.100;25.222;2023-01-13T11:36:17;100562.50;;;10.63;100.00
8641;BME280;4358;42.100;25.222;2023-01-13T11:38:49;100552.03;;;10.76;100.00
8641;BME280;4358;42.100;25.222;2023-01-13T11:41:29;100556.94;;;10.83;100.00
8641;BME280;4358;42.100;25.222;2023-01-13T11:44:08;100549.13;;;10.80;100.00
8641;BME280;4358;42.100;25.222;2023-01-13T11:46:39;100551.53;;;10.69;100.00
8641;BME280;4358;42.100;25.222;2023-01-13T11:49:09;100549.66;;;10.71;100.00
8641;BME280;4358;42.100;25.222;2023-01-13T11:51:48;100541.25;;;10.63;100.00
8641;BME280;4358;42.100;25.222;2023-01-13T11:54:38;100546.81;;;10.74;100.00
8641;BME280;4358;42.100;25.222;2023-01-13T11:57:22;100538.69;;;10.77;100.00
8641;BME280;4358;42.100;25.222;2023-01-13T12:00:13;100536.03;;;10.77;100.00
8641;BME280;4358;42.100;25.222;2023-01-13T12:03:03;100533.53;;;10.74;100.00
8641;BME280;4358;42.100;25.222;2023-01-13T12:05:36;100533.84;;;10.84;100.00
8641;BME280;4358;42.100;25.222;2023-01-13T12:08:17;100523.97;;;11.01;100.00
8641;BME280;4358;42.100;25.222;2023-01-13T12:10:59;100525.72;;;11.17;100.00
8641;BME280;4358;42.100;25.222;2023-01-13T12:13:37;100524.78;;;11.32;100.00
8641;BME280;4358;42.100;25.222;2023-01-13T12:16:22;100527.72;;;11.27;100.00
8641;BME280;4358;42.100;25.222;2023-01-13T12:19:17;100518.97;;;11.25;100.00
8641;BME280;4358;42.100;25.222;2023-01-13T12:21:57;100515.50;;;11.39;100.00
8641;BME280;4358;42.100;25.222;2023-01-13T12:24:31;100520.25;;;11.48;100.00
8641;BME280;4358;42.100;25.222;2023-01-13T12:27:08;100518.66;;;11.60;100.00
8641;BME280;4358;42.100;25.222;2023-01-13T12:29:38;100524.63;;;11.63;100.00
8641;BME280;4358;42.100;25.222;2023-01-13T12:32:10;100524.34;;;11.68;100.00
8641;BME280;4358;42.100;25.222;2023-01-13T12:34:50;100529.59;;;11.69;100.00
8641;BME280;4358;42.100;25.222;2023-01-13T12:37:22;100528.66;;;11.70;100.00
8641;BME280;4358;42.100;25.222;2023-01-13T12:40:00;100530.59;;;11.82;100.00
8641;BME280;4358;42.100;25.222;2023-01-13T12:42:33;100526.88;;;11.85;100.00
8641;BME280;4358;42.100;25.222;2023-01-13T12:45:25;100526.59;;;11.75;100.00
8641;BME280;4358;42.100;25.222;2023-01-13T12:47:53;100530.03;;;11.47;100.00
8641;BME280;4358;42.100;25.222;2023-01-13T12:50:44;100526.72;;;11.58;100.00
8641;BME280;4358;42.100;25.222;2023-01-13T12:53:33;100523.63;;;11.80;100.00
8641;BME280;4358;42.100;25.222;2023-01-13T12:56:30;100530.75;;;11.79;100.00
8641;BME280;4358;42.100;25.222;2023-01-13T13:02:30;100541.16;;;11.54;100.00
8641;BME280;4358;42.100;25.222;2023-01-13T13:05:02;100543.63;;;11.43;100.00
8641;BME280;4358;42.100;25.222;2023-01-13T13:07:51;100537.69;;;11.24;100.00
8641;BME280;4358;42.100;25.222;2023-01-13T13:10:22;100524.13;;;11.14;100.00
8641;BME280;4358;42.100;25.222;2023-01-13T13:13:00;100520.25;;;11.20;100.00
8641;BME280;4358;42.100;25.222;2023-01-13T13:15:49;100540.84;;;11.30;100.00
8641;BME280;4358;42.100;25.222;2023-01-13T13:18:25;100541.28;;;11.23;100.00
8641;BME280;4358;42.100;25.222;2023-01-13T13:21:01;100543.56;;;11.15;100.00
8641;BME280;4358;42.100;25.222;2023-01-13T13:23:44;100546.88;;;11.18;100.00
8641;BME280;4358;42.100;25.222;2023-01-13T13:26:27;100548.31;;;11.24;100.00
8641;BME280;4358;42.100;25.222;2023-01-13T13:29:21;100553.66;;;11.24;100.00
8641;BME280;4358;42.100;25.222;2023-01-13T13:32:20;100553.09;;;11.33;100.00